Time;durP1;ratioP1;P1;durP2;ratioP2;P2;SDS_P1;SDS_P2;PMS_P1;PMS_P2;Temp;Humidity;BMP_temperature;BMP_pressure;BME280_temperature;BME280_humidity;BME280_pressure;Samples;Min_cycle;Max_cycle;Signal;HPM_P1;HPM_P2
2021/10/13 00:00:20;;;;;;;9.50;2.80;;;8.10;99.90;;;;;;5036819;28;20363;-82
2021/10/13 00:02:45;;;;;;;5.50;2.80;;;8.10;99.90;;;;;;5038000;28;20540;-82
2021/10/13 00:05:11;;;;;;;6.83;2.47;;;8.00;99.90;;;;;;5062503;23;20044;-87
2021/10/13 00:07:37;;;;;;;9.23;2.90;;;8.00;99.90;;;;;;5047916;28;20033;-86
2021/10/13 00:10:04;;;;;;;6.00;2.80;;;7.90;99.90;;;;;;5049314;28;20556;-87
2021/10/13 00:12:33;;;;;;;7.53;2.83;;;7.90;99.90;;;;;;5048671;28;20056;-86
2021/10/13 00:14:59;;;;;;;7.50;3.05;;;7.90;99.90;;;;;;5052035;28;20025;-86
2021/10/13 00:17:25;;;;;;;6.70;2.80;;;7.90;99.90;;;;;;5052584;28;20392;-87
2021/10/13 00:19:51;;;;;;;7.90;2.70;;;7.90;99.90;;;;;;5051648;28;20021;-86
2021/10/13 00:22:16;;;;;;;9.03;3.13;;;7.90;99.90;;;;;;5052483;28;20025;-87
2021/10/13 00:24:42;;;;;;;9.47;3.27;;;7.80;99.90;;;;;;5052155;28;20495;-86
2021/10/13 00:27:07;;;;;;;7.07;2.83;;;7.90;99.90;;;;;;5052317;28;20107;-86
2021/10/13 00:29:36;;;;;;;9.20;3.83;;;7.90;99.90;;;;;;5051638;28;20496;-86
2021/10/13 00:32:04;;;;;;;9.03;3.47;;;7.90;99.90;;;;;;5052258;28;20473;-86
2021/10/13 00:34:31;;;;;;;10.43;3.10;;;7.80;99.90;;;;;;5053367;28;20021;-87
2021/10/13 00:36:56;;;;;;;9.13;3.03;;;7.80;99.90;;;;;;5052082;28;20025;-86
2021/10/13 00:39:22;;;;;;;8.67;2.97;;;7.80;99.90;;;;;;5051386;28;20017;-86
2021/10/13 00:41:48;;;;;;;7.73;2.70;;;7.80;99.90;;;;;;5053673;28;20036;-87
2021/10/13 00:44:13;;;;;;;5.73;2.70;;;7.80;99.90;;;;;;5052119;28;20029;-87
2021/10/13 00:46:39;;;;;;;4.67;2.73;;;7.70;99.90;;;;;;5052163;28;20025;-87
2021/10/13 00:49:04;;;;;;;8.37;3.10;;;7.70;99.90;;;;;;5051137;28;20032;-86
2021/10/13 00:51:30;;;;;;;9.73;2.80;;;7.60;99.90;;;;;;5053469;28;20032;-86
2021/10/13 00:53:57;;;;;;;9.63;3.00;;;7.60;99.90;;;;;;5051707;28;20029;-86
2021/10/13 00:56:22;;;;;;;7.17;2.83;;;7.60;99.90;;;;;;5051802;28;20021;-86
2021/10/13 00:58:48;;;;;;;7.00;3.03;;;7.60;99.90;;;;;;5051505;28;20039;-86
2021/10/13 01:01:25;;;;;;;6.50;2.80;;;7.50;99.90;;;;;;5051593;28;20480;-86
2021/10/13 01:04:23;;;;;;;7.07;2.60;;;7.60;99.90;;;;;;5051564;28;20119;-86
2021/10/13 01:07:29;;;;;;;7.93;2.80;;;7.60;99.90;;;;;;5048888;28;20404;-86
2021/10/13 01:10:08;;;;;;;7.43;2.93;;;7.50;99.90;;;;;;5052268;28;20079;-86
2021/10/13 01:13:07;;;;;;;7.82;3.00;;;7.50;99.90;;;;;;5052990;28;20025;-86
2021/10/13 01:15:36;;;;;;;;;;;7.50;99.90;;;;;;5053069;28;20075;-86
2021/10/13 01:18:19;;;;;;;7.10;2.93;;;7.50;99.90;;;;;;5051400;28;20354;-86
2021/10/13 01:21:22;;;;;;;6.17;2.67;;;7.50;99.90;;;;;;5052039;28;20031;-86
2021/10/13 01:24:17;;;;;;;7.40;2.63;;;7.50;99.90;;;;;;5051158;28;20028;-86
2021/10/13 01:27:04;;;;;;;6.80;3.00;;;7.50;99.90;;;;;;5050133;28;20032;-86
2021/10/13 01:29:32;;;;;;;6.83;2.97;;;7.40;99.90;;;;;;5050600;28;20037;-86
2021/10/13 01:32:03;;;;;;;7.70;3.37;;;7.40;99.90;;;;;;5051129;28;20052;-87
2021/10/13 01:34:35;;;;;;;6.87;2.73;;;7.40;99.90;;;;;;5052407;28;20064;-86
2021/10/13 01:37:16;;;;;;;8.63;3.50;;;7.40;99.90;;;;;;5052130;28;20043;-86
2021/10/13 01:39:45;;;;;;;10.20;3.33;;;7.40;99.90;;;;;;5051114;28;20032;-86
2021/10/13 01:42:14;;;;;;;6.07;2.88;;;7.40;99.90;;;;;;5052222;28;20077;-85
2021/10/13 01:44:41;;;;;;;9.07;3.55;;;7.40;99.90;;;;;;5052614;28;20042;-86
2021/10/13 01:47:09;;;;;;;9.30;3.53;;;7.40;99.90;;;;;;5052955;28;20033;-85
2021/10/13 01:49:36;;;;;;;6.82;3.20;;;7.30;99.90;;;;;;5051729;28;20028;-85
2021/10/13 01:52:05;;;;;;;8.80;3.40;;;7.30;99.90;;;;;;5052555;28;20079;-86
2021/10/13 01:54:31;;;;;;;8.43;3.20;;;7.30;99.90;;;;;;5050837;28;20125;-86
2021/10/13 01:57:00;;;;;;;9.40;3.40;;;7.30;99.90;;;;;;5050933;28;20079;-86
2021/10/13 01:59:29;;;;;;;9.63;3.80;;;7.30;99.90;;;;;;5051566;28;20021;-85
2021/10/13 02:01:58;;;;;;;6.28;3.33;;;7.30;99.90;;;;;;5052350;28;20017;-85
2021/10/13 02:04:25;;;;;;;7.63;3.53;;;7.30;99.90;;;;;;5050677;28;20044;-85
2021/10/13 02:06:52;;;;;;;6.87;3.30;;;7.20;99.90;;;;;;5051933;28;20033;-85
2021/10/13 02:09:22;;;;;;;5.60;2.93;;;7.30;99.90;;;;;;5051199;28;20029;-85
2021/10/13 02:11:48;;;;;;;7.43;3.30;;;7.30;99.90;;;;;;5050709;28;20037;-85
2021/10/13 02:14:17;;;;;;;7.43;3.47;;;7.20;99.90;;;;;;5050118;28;20029;-85
2021/10/13 02:16:47;;;;;;;6.50;3.05;;;7.30;99.90;;;;;;5050352;28;20025;-85
2021/10/13 02:19:16;;;;;;;7.10;2.97;;;7.20;99.90;;;;;;5049674;28;20484;-86
2021/10/13 02:21:47;;;;;;;6.32;2.92;;;7.20;99.90;;;;;;5052131;28;20096;-85
2021/10/13 02:24:17;;;;;;;8.80;3.07;;;7.20;99.90;;;;;;5050171;28;20033;-85
2021/10/13 02:26:46;;;;;;;7.43;3.13;;;7.20;99.90;;;;;;5052691;28;20024;-85
2021/10/13 02:29:14;;;;;;;6.97;3.07;;;7.20;99.90;;;;;;5051364;28;20044;-85
2021/10/13 02:31:40;;;;;;;5.03;3.17;;;7.10;99.90;;;;;;5050547;28;20298;-85
2021/10/13 02:34:06;;;;;;;7.93;3.13;;;7.20;99.90;;;;;;5051817;28;20572;-85
2021/10/13 02:36:32;;;;;;;6.63;2.97;;;7.10;99.90;;;;;;5051383;28;20343;-85
2021/10/13 02:38:58;;;;;;;9.53;3.87;;;7.10;99.90;;;;;;5050718;28;20056;-86
2021/10/13 02:41:23;;;;;;;7.03;3.47;;;7.20;99.90;;;;;;5050464;28;20033;-85
2021/10/13 02:43:49;;;;;;;7.40;3.73;;;7.20;99.90;;;;;;5051350;28;20033;-86
2021/10/13 02:46:41;;;;;;;6.43;3.33;;;7.30;99.90;;;;;;5050233;28;20086;-85
2021/10/13 02:49:30;;;;;;;8.67;3.23;;;7.30;99.90;;;;;;5044711;28;20069;-85
2021/10/13 02:52:05;;;;;;;6.85;3.28;;;7.30;99.90;;;;;;5049919;28;20122;-85
2021/10/13 02:54:38;;;;;;;6.50;3.07;;;7.30;99.90;;;;;;5051263;28;20039;-85
2021/10/13 02:57:05;;;;;;;7.43;4.07;;;7.40;99.90;;;;;;5049597;28;20381;-86
2021/10/13 02:59:39;;;;;;;9.70;3.50;;;7.30;99.90;;;;;;5048980;28;20029;-85
2021/10/13 03:02:10;;;;;;;7.53;3.50;;;7.30;99.90;;;;;;5051178;28;20037;-85
2021/10/13 03:04:40;;;;;;;7.53;3.40;;;7.30;99.90;;;;;;5049382;28;20021;-85
2021/10/13 03:07:13;;;;;;;8.20;3.23;;;7.40;99.90;;;;;;5049269;28;20120;-87
2021/10/13 03:09:42;;;;;;;9.60;3.67;;;7.40;99.90;;;;;;5049050;28;20028;-85
2021/10/13 03:12:10;;;;;;;12.70;3.90;;;7.40;99.90;;;;;;5051479;28;20025;-85
2021/10/13 03:14:38;;;;;;;8.23;3.80;;;7.40;99.90;;;;;;5051086;28;20572;-87
2021/10/13 03:17:05;;;;;;;8.80;3.87;;;7.50;99.90;;;;;;5049621;28;20029;-85
2021/10/13 03:19:35;;;;;;;7.53;3.53;;;7.50;99.90;;;;;;5048735;28;20112;-85
2021/10/13 03:22:04;;;;;;;10.77;3.80;;;7.50;99.90;;;;;;5050041;28;20435;-85
2021/10/13 03:24:29;;;;;;;10.80;4.13;;;7.50;99.90;;;;;;5051127;28;20469;-85
2021/10/13 03:26:55;;;;;;;8.03;4.00;;;7.50;99.90;;;;;;5049910;28;20025;-85
2021/10/13 03:29:22;;;;;;;7.53;3.90;;;7.50;99.90;;;;;;5048788;28;20029;-86
2021/10/13 03:31:47;;;;;;;8.33;4.00;;;7.50;99.90;;;;;;5051022;28;20422;-87
2021/10/13 03:34:15;;;;;;;9.10;4.27;;;7.60;99.90;;;;;;5050966;28;20025;-87
2021/10/13 03:36:44;;;;;;;9.20;3.83;;;7.60;99.90;;;;;;5050899;28;20033;-85
2021/10/13 03:39:11;;;;;;;8.95;4.20;;;7.60;99.90;;;;;;5050238;28;20028;-85
2021/10/13 03:41:37;;;;;;;8.27;4.37;;;7.60;99.90;;;;;;5049516;28;20108;-86
2021/10/13 03:44:04;;;;;;;12.00;4.10;;;7.60;99.90;;;;;;5050396;28;20098;-86
2021/10/13 03:46:29;;;;;;;11.10;4.10;;;7.60;99.90;;;;;;5051276;28;20391;-84
2021/10/13 03:48:56;;;;;;;10.37;4.20;;;7.60;99.90;;;;;;5049074;28;20114;-85
2021/10/13 03:51:22;;;;;;;10.63;4.87;;;7.70;99.90;;;;;;5058242;28;20039;-85
2021/10/13 03:53:48;;;;;;;11.27;5.13;;;7.70;99.90;;;;;;5055849;28;20029;-85
2021/10/13 03:56:14;;;;;;;9.53;4.73;;;7.50;99.90;;;;;;5054947;28;20028;-85
2021/10/13 03:58:40;;;;;;;10.20;4.93;;;7.40;99.90;;;;;;5055000;28;20025;-85
2021/10/13 04:01:06;;;;;;;10.83;5.27;;;7.40;99.90;;;;;;5054678;28;20483;-84
2021/10/13 04:03:32;;;;;;;11.83;5.03;;;7.50;99.90;;;;;;5053652;28;20075;-85
2021/10/13 04:05:58;;;;;;;12.57;5.87;;;7.30;99.90;;;;;;5054828;28;20032;-84
2021/10/13 04:08:24;;;;;;;8.90;4.63;;;7.30;99.90;;;;;;5055409;28;20029;-84
2021/10/13 04:10:50;;;;;;;11.03;4.77;;;7.40;99.90;;;;;;5054558;28;20025;-85
2021/10/13 04:13:15;;;;;;;10.67;4.50;;;7.40;99.90;;;;;;5053575;28;20488;-86
2021/10/13 04:15:41;;;;;;;13.23;4.83;;;7.20;99.90;;;;;;5054998;28;20175;-85
2021/10/13 04:18:07;;;;;;;11.90;5.67;;;7.10;99.90;;;;;;5054790;28;20032;-85
2021/10/13 04:20:32;;;;;;;13.23;4.67;;;7.20;99.90;;;;;;5052526;28;20611;-85
2021/10/13 04:22:58;;;;;;;11.13;4.83;;;7.20;99.90;;;;;;5055379;28;20119;-84
2021/10/13 04:25:24;;;;;;;9.93;4.90;;;7.30;99.90;;;;;;5055217;28;20111;-85
2021/10/13 04:27:50;;;;;;;11.30;4.87;;;7.40;99.90;;;;;;5055384;28;20103;-85
2021/10/13 04:30:17;;;;;;;10.30;4.50;;;7.30;99.90;;;;;;5053830;28;20032;-85
2021/10/13 04:32:44;;;;;;;8.07;4.67;;;7.30;99.90;;;;;;5054341;28;20112;-86
2021/10/13 04:35:10;;;;;;;10.40;5.03;;;7.30;99.90;;;;;;5055315;28;20033;-85
2021/10/13 04:37:37;;;;;;;10.17;4.93;;;7.20;99.90;;;;;;5054866;28;20044;-87
2021/10/13 04:40:04;;;;;;;9.60;4.63;;;7.30;99.90;;;;;;5054148;28;20029;-83
2021/10/13 04:42:30;;;;;;;10.83;4.93;;;7.30;99.90;;;;;;5053292;28;20453;-83
2021/10/13 04:44:56;;;;;;;10.33;5.23;;;7.40;99.90;;;;;;5053032;28;20063;-85
2021/10/13 04:47:22;;;;;;;15.17;5.40;;;7.40;99.90;;;;;;5054020;28;20087;-86
2021/10/13 04:49:48;;;;;;;10.83;4.80;;;7.40;99.90;;;;;;5051672;28;20120;-88
2021/10/13 04:52:13;;;;;;;17.33;7.00;;;7.40;99.90;;;;;;5052738;28;20052;-85
2021/10/13 04:54:39;;;;;;;14.47;5.80;;;7.40;99.90;;;;;;5053369;28;20076;-87
2021/10/13 04:57:05;;;;;;;11.50;5.13;;;7.40;99.90;;;;;;5053353;28;20021;-87
2021/10/13 04:59:30;;;;;;;12.63;4.90;;;7.40;99.90;;;;;;5051585;28;20110;-85
2021/10/13 05:01:56;;;;;;;10.13;4.97;;;7.40;99.90;;;;;;5051974;28;20078;-86
2021/10/13 05:04:21;;;;;;;13.87;5.20;;;7.40;99.90;;;;;;5053053;28;20028;-85
2021/10/13 05:06:47;;;;;;;24.00;12.07;;;7.40;99.90;;;;;;5053171;28;20057;-85
2021/10/13 05:09:14;;;;;;;14.87;6.37;;;7.40;99.90;;;;;;5052622;28;20541;-86
2021/10/13 05:11:40;;;;;;;12.17;5.43;;;7.40;99.90;;;;;;5054078;28;20442;-85
2021/10/13 05:14:06;;;;;;;14.53;5.83;;;7.40;99.90;;;;;;5052973;28;20021;-84
2021/10/13 05:16:31;;;;;;;13.47;5.57;;;7.30;99.90;;;;;;5052160;28;20560;-85
2021/10/13 05:18:57;;;;;;;14.90;5.80;;;7.40;99.90;;;;;;5054637;28;20017;-86
2021/10/13 05:21:23;;;;;;;15.17;5.83;;;7.40;99.90;;;;;;5055296;28;20025;-86
2021/10/13 05:23:48;;;;;;;12.93;6.30;;;7.40;99.90;;;;;;5054067;28;20067;-85
2021/10/13 05:26:14;;;;;;;11.67;5.63;;;7.40;99.90;;;;;;5055429;28;20025;-85
2021/10/13 05:28:39;;;;;;;11.93;6.00;;;7.40;99.90;;;;;;5054371;28;20029;-85
2021/10/13 05:31:05;;;;;;;12.83;6.00;;;7.40;99.90;;;;;;5052945;28;20389;-86
2021/10/13 05:33:31;;;;;;;12.47;6.00;;;7.40;99.90;;;;;;5056094;28;20100;-85
2021/10/13 05:35:56;;;;;;;13.83;5.93;;;7.50;99.90;;;;;;5051253;28;20138;-85
2021/10/13 05:38:22;;;;;;;14.73;6.30;;;7.40;99.90;;;;;;5053630;28;20037;-85
2021/10/13 05:40:48;;;;;;;14.90;6.80;;;7.40;99.90;;;;;;5050669;28;20025;-85
2021/10/13 05:43:14;;;;;;;13.87;6.23;;;7.40;99.90;;;;;;5052059;28;20017;-85
2021/10/13 05:45:40;;;;;;;16.10;6.00;;;7.40;99.90;;;;;;5051326;28;20036;-85
2021/10/13 05:48:18;;;;;;;16.30;6.07;;;7.30;99.90;;;;;;5052500;28;20051;-85
2021/10/13 05:50:44;;;;;;;12.00;5.73;;;7.30;99.90;;;;;;5050873;28;20143;-86
2021/10/13 05:53:30;;;;;;;11.93;5.33;;;7.40;99.90;;;;;;5054962;28;20032;-87
2021/10/13 05:55:56;;;;;;;12.73;5.13;;;7.40;99.90;;;;;;5051302;28;20087;-86
2021/10/13 05:58:24;;;;;;;13.87;5.83;;;7.40;99.90;;;;;;5052696;28;20021;-86
2021/10/13 06:00:50;;;;;;;14.63;5.83;;;7.50;99.90;;;;;;5050638;28;20043;-87
2021/10/13 06:03:21;;;;;;;12.90;5.43;;;7.40;99.90;;;;;;5051433;28;20021;-88
2021/10/13 06:05:46;;;;;;;9.77;4.80;;;7.40;99.90;;;;;;5063711;23;20033;-86
2021/10/13 06:08:13;;;;;;;20.13;6.00;;;7.50;99.90;;;;;;5051641;28;20396;-84
2021/10/13 06:10:39;;;;;;;12.27;5.47;;;7.50;99.90;;;;;;5053332;28;20021;-84
2021/10/13 06:13:05;;;;;;;11.43;5.60;;;7.60;99.90;;;;;;5051864;28;20043;-82
2021/10/13 06:15:34;;;;;;;9.37;4.90;;;7.60;99.90;;;;;;5052372;28;20036;-83
2021/10/13 06:18:03;;;;;;;;;;;7.60;99.90;;;;;;5054014;28;20101;-83
2021/10/13 06:20:29;;;;;;;9.00;4.90;;;7.70;99.90;;;;;;5054884;28;19909;-84
2021/10/13 06:22:55;;;;;;;11.40;5.20;;;7.70;99.90;;;;;;5055399;28;20338;-84
2021/10/13 06:25:21;;;;;;;9.50;4.63;;;7.70;99.90;;;;;;5054018;28;20053;-84
2021/10/13 06:27:46;;;;;;;10.83;5.37;;;7.70;99.90;;;;;;5056000;28;20033;-84
2021/10/13 06:30:13;;;;;;;11.63;5.20;;;7.80;99.90;;;;;;5053121;28;20189;-83
2021/10/13 06:32:39;;;;;;;12.60;5.03;;;7.90;99.90;;;;;;5052982;28;20072;-84
2021/10/13 06:35:05;;;;;;;14.03;5.47;;;8.00;99.90;;;;;;5052360;28;20523;-83
2021/10/13 06:37:30;;;;;;;12.50;5.37;;;8.00;99.90;;;;;;5053659;28;20127;-85
2021/10/13 06:39:56;;;;;;;9.90;5.63;;;8.10;99.90;;;;;;5055630;28;20051;-84
2021/10/13 06:42:22;;;;;;;14.77;6.93;;;8.10;99.90;;;;;;5051057;28;20029;-84
2021/10/13 06:44:47;;;;;;;12.30;5.60;;;8.20;99.90;;;;;;5051538;28;20140;-84
2021/10/13 06:47:13;;;;;;;10.57;5.13;;;8.20;99.90;;;;;;5052429;28;20540;-84
2021/10/13 06:49:39;;;;;;;10.07;5.27;;;8.20;99.90;;;;;;5049077;28;20029;-85
2021/10/13 06:52:04;;;;;;;11.70;6.03;;;8.10;99.90;;;;;;5051576;28;20483;-83
2021/10/13 06:54:30;;;;;;;14.20;5.87;;;8.10;99.90;;;;;;5050746;28;20402;-85
2021/10/13 06:56:56;;;;;;;9.97;5.27;;;8.10;99.90;;;;;;5051817;28;20457;-84
2021/10/13 06:59:21;;;;;;;11.63;5.10;;;8.10;99.90;;;;;;5054720;28;20048;-83
2021/10/13 07:01:48;;;;;;;11.57;5.00;;;8.10;99.90;;;;;;5053867;28;20488;-83
2021/10/13 07:04:14;;;;;;;10.40;5.43;;;8.10;99.90;;;;;;5055936;28;20025;-85
2021/10/13 07:06:39;;;;;;;9.07;5.13;;;8.20;99.90;;;;;;5053332;28;20036;-83
2021/10/13 07:09:05;;;;;;;10.50;5.53;;;8.30;99.90;;;;;;5051391;28;20028;-84
2021/10/13 07:11:32;;;;;;;12.43;5.73;;;8.20;99.90;;;;;;5053564;28;20458;-83
2021/10/13 07:13:57;;;;;;;12.80;5.60;;;8.30;99.90;;;;;;5051909;28;20115;-83
2021/10/13 07:16:23;;;;;;;11.27;5.70;;;8.40;99.90;;;;;;5052820;28;20060;-84
2021/10/13 07:18:49;;;;;;;9.40;4.83;;;8.40;99.90;;;;;;5058127;28;20052;-84
2021/10/13 07:21:14;;;;;;;11.57;5.10;;;8.50;99.90;;;;;;5057180;28;20025;-83
2021/10/13 07:23:40;;;;;;;12.33;6.23;;;8.60;99.90;;;;;;5053755;28;20029;-84
2021/10/13 07:26:06;;;;;;;14.47;6.37;;;8.60;99.90;;;;;;5051897;28;20094;-85
2021/10/13 07:28:35;;;;;;;12.37;5.57;;;8.70;99.90;;;;;;5050789;28;20029;-84
2021/10/13 07:31:01;;;;;;;8.25;5.30;;;8.80;99.90;;;;;;5049992;28;20029;-83
2021/10/13 07:33:26;;;;;;;10.87;6.00;;;8.90;99.90;;;;;;5052563;28;20029;-83
2021/10/13 07:35:52;;;;;;;11.23;5.47;;;8.80;99.90;;;;;;5055789;28;20510;-84
2021/10/13 07:38:17;;;;;;;9.43;5.10;;;8.90;99.90;;;;;;5053110;28;20029;-84
2021/10/13 07:40:45;;;;;;;12.43;5.87;;;8.90;99.90;;;;;;5051103;28;20028;-84
2021/10/13 07:43:12;;;;;;;12.60;6.10;;;8.90;99.90;;;;;;5052197;28;20021;-83
2021/10/13 07:45:37;;;;;;;12.83;5.93;;;9.00;99.90;;;;;;5053896;28;20033;-84
2021/10/13 07:48:03;;;;;;;10.00;5.13;;;9.00;99.90;;;;;;5054391;28;20029;-85
2021/10/13 07:50:29;;;;;;;14.93;6.50;;;9.00;99.90;;;;;;5051883;28;20029;-83
2021/10/13 07:52:55;;;;;;;16.50;6.70;;;9.10;99.90;;;;;;5054691;28;20404;-84
2021/10/13 07:55:20;;;;;;;15.23;6.40;;;9.10;99.90;;;;;;5052783;28;20025;-83
2021/10/13 07:57:46;;;;;;;16.57;6.93;;;9.10;99.90;;;;;;5053905;28;20040;-83
2021/10/13 08:00:12;;;;;;;14.50;6.97;;;9.00;99.90;;;;;;5053862;28;20515;-84
2021/10/13 08:02:44;;;;;;;17.50;7.10;;;9.10;99.90;;;;;;5052934;28;20063;-83
2021/10/13 08:05:10;;;;;;;11.97;6.87;;;9.10;99.90;;;;;;5054226;28;20021;-84
2021/10/13 08:07:35;;;;;;;16.40;6.90;;;9.10;99.90;;;;;;5055856;28;20484;-83
2021/10/13 08:10:01;;;;;;;14.57;6.77;;;9.10;99.90;;;;;;5051176;28;20041;-84
2021/10/13 08:12:26;;;;;;;14.20;6.40;;;9.10;99.90;;;;;;5053801;28;20074;-84
2021/10/13 08:14:52;;;;;;;15.63;7.33;;;9.20;99.90;;;;;;5051267;28;20029;-84
2021/10/13 08:17:17;;;;;;;9.57;5.97;;;9.30;99.90;;;;;;5051865;28;20025;-83
2021/10/13 08:19:43;;;;;;;16.07;6.90;;;9.30;99.90;;;;;;5052833;28;20385;-83
2021/10/13 08:22:09;;;;;;;14.50;6.63;;;9.40;99.90;;;;;;5053210;28;20350;-82
2021/10/13 08:24:35;;;;;;;14.70;7.00;;;9.40;99.90;;;;;;5051869;28;20025;-82
2021/10/13 08:27:02;;;;;;;21.00;6.70;;;9.50;99.90;;;;;;5052985;28;20068;-85
2021/10/13 08:29:28;;;;;;;17.40;7.63;;;9.50;99.90;;;;;;5049706;28;20024;-83
2021/10/13 08:31:54;;;;;;;17.07;7.73;;;9.60;99.90;;;;;;5051165;28;20071;-83
2021/10/13 08:34:20;;;;;;;22.30;11.37;;;9.60;99.90;;;;;;5051174;28;20029;-82
2021/10/13 08:36:46;;;;;;;21.77;12.40;;;9.60;99.90;;;;;;5055540;28;20419;-84
2021/10/13 08:39:11;;;;;;;21.93;11.27;;;9.70;99.90;;;;;;5053507;28;20032;-83
2021/10/13 08:41:37;;;;;;;23.50;12.47;;;9.70;99.90;;;;;;5055356;28;20024;-83
2021/10/13 08:44:03;;;;;;;30.90;16.70;;;9.80;99.90;;;;;;5054756;28;20070;-83
2021/10/13 08:46:29;;;;;;;32.77;17.23;;;9.80;99.90;;;;;;5053207;28;20028;-83
2021/10/13 08:48:55;;;;;;;24.33;15.17;;;9.80;99.90;;;;;;5053929;28;20024;-83
2021/10/13 08:51:21;;;;;;;25.60;11.63;;;9.90;99.90;;;;;;5053360;28;20021;-84
2021/10/13 08:53:47;;;;;;;21.03;11.23;;;9.90;99.90;;;;;;5052721;28;20032;-83
2021/10/13 08:56:12;;;;;;;17.50;9.00;;;9.90;99.90;;;;;;5054598;28;20486;-83
2021/10/13 08:58:40;;;;;;;18.37;8.40;;;10.00;99.90;;;;;;5054309;28;20446;-83
2021/10/13 09:01:07;;;;;;;14.93;8.03;;;10.00;99.90;;;;;;5054348;28;20025;-84
2021/10/13 09:03:35;;;;;;;17.10;8.23;;;10.10;99.90;;;;;;5053846;28;20413;-84
2021/10/13 09:06:21;;;;;;;15.17;7.27;;;10.10;99.90;;;;;;5052489;28;20025;-84
2021/10/13 09:09:09;;;;;;;15.83;8.37;;;10.20;99.90;;;;;;5056163;28;20071;-83
2021/10/13 09:11:38;;;;;;;18.25;8.40;;;10.20;99.90;;;;;;5054260;28;20090;-85
2021/10/13 09:14:13;;;;;;;14.10;7.10;;;10.30;99.90;;;;;;5057365;28;20039;-84
2021/10/13 09:16:50;;;;;;;13.60;6.23;;;10.30;99.90;;;;;;5056216;28;20028;-86
2021/10/13 09:19:16;;;;;;;17.77;6.40;;;10.40;99.90;;;;;;5057499;28;20032;-84
2021/10/13 09:22:03;;;;;;;14.43;6.40;;;10.40;99.90;;;;;;5063366;28;20037;-83
2021/10/13 09:24:30;;;;;;;15.03;5.87;;;10.60;99.90;;;;;;5056113;28;20028;-82
2021/10/13 09:27:16;;;;;;;13.00;6.10;;;10.70;99.90;;;;;;5059652;28;20033;-82
2021/10/13 09:29:42;;;;;;;12.37;5.90;;;10.80;99.90;;;;;;5058704;28;20036;-82
2021/10/13 09:32:08;;;;;;;12.97;5.63;;;10.90;99.90;;;;;;5059363;28;20036;-81
2021/10/13 09:34:34;;;;;;;16.23;6.77;;;11.00;99.90;;;;;;5058383;28;20029;-81
2021/10/13 09:37:00;;;;;;;12.10;5.90;;;11.20;99.90;;;;;;5059323;28;20071;-82
2021/10/13 09:39:30;;;;;;;14.73;5.30;;;11.30;99.90;;;;;;5061161;28;20025;-82
2021/10/13 09:42:02;;;;;;;16.00;6.00;;;11.30;99.90;;;;;;5058848;28;20087;-83
2021/10/13 09:44:30;;;;;;;13.53;6.57;;;11.40;99.90;;;;;;5062938;28;20028;-82
2021/10/13 09:47:00;;;;;;;13.00;5.87;;;11.40;99.90;;;;;;5064499;28;20028;-82
2021/10/13 09:49:57;;;;;;;16.50;5.77;;;11.40;99.90;;;;;;5063093;28;20021;-84
2021/10/13 09:52:28;;;;;;;11.83;5.10;;;11.40;99.90;;;;;;5055092;28;20101;-83
2021/10/13 09:55:01;;;;;;;12.67;5.17;;;11.40;99.90;;;;;;5057496;28;20100;-83
2021/10/13 09:57:29;;;;;;;14.83;4.53;;;11.40;99.90;;;;;;5054998;28;20107;-83
2021/10/13 10:00:05;;;;;;;11.10;5.00;;;11.40;99.90;;;;;;5054260;28;20021;-83
2021/10/13 10:02:49;;;;;;;11.30;4.80;;;11.40;99.90;;;;;;5053526;28;20021;-82
2021/10/13 10:05:18;;;;;;;11.53;4.80;;;11.40;99.90;;;;;;5053126;28;20138;-82
2021/10/13 10:08:03;;;;;;;10.43;4.75;;;11.40;99.90;;;;;;5053015;28;20086;-82
2021/10/13 10:10:29;;;;;;;14.33;4.63;;;11.40;99.90;;;;;;5054163;28;20389;-82
2021/10/13 10:12:54;;;;;;;9.10;4.17;;;11.40;99.90;;;;;;5053457;28;20499;-82
2021/10/13 10:15:35;;;;;;;9.37;4.33;;;11.40;99.90;;;;;;5054321;28;20021;-82
2021/10/13 10:18:01;;;;;;;11.90;4.10;;;11.50;99.90;;;;;;5054770;28;20081;-83
2021/10/13 10:20:38;;;;;;;11.23;4.20;;;11.50;99.90;;;;;;5053939;28;20041;-82
2021/10/13 10:23:33;;;;;;;9.17;4.20;;;11.50;99.90;;;;;;5054664;28;20039;-82
2021/10/13 10:26:24;;;;;;;8.23;3.50;;;11.50;99.90;;;;;;5054646;28;20037;-82
2021/10/13 10:28:52;;;;;;;8.97;3.37;;;11.60;99.90;;;;;;5054129;28;20025;-82
2021/10/13 10:31:27;;;;;;;12.82;4.75;;;11.60;99.90;;;;;;5054417;28;20024;-83
2021/10/13 10:34:16;;;;;;;11.00;3.93;;;11.70;99.90;;;;;;5054231;28;20023;-82
2021/10/13 10:36:44;;;;;;;8.95;3.55;;;11.80;99.90;;;;;;5051989;28;20025;-82
2021/10/13 10:39:12;;;;;;;10.85;3.83;;;11.90;99.90;;;;;;5052785;28;20390;-82
2021/10/13 10:41:55;;;;;;;11.37;3.83;;;12.00;99.90;;;;;;5053116;28;20436;-82
2021/10/13 10:44:45;;;;;;;12.40;3.17;;;12.00;99.90;;;;;;5053193;28;20390;-82
2021/10/13 10:47:11;;;;;;;11.77;3.00;;;12.10;99.90;;;;;;5051962;28;20075;-82
2021/10/13 10:49:46;;;;;;;6.33;2.40;;;12.20;99.90;;;;;;5052432;28;20108;-82
2021/10/13 10:52:14;;;;;;;8.07;2.20;;;12.20;99.90;;;;;;5051549;28;20029;-82
2021/10/13 10:54:40;;;;;;;8.07;1.80;;;12.20;99.90;;;;;;5052906;28;20480;-82
2021/10/13 10:57:48;;;;;;;7.03;1.73;;;12.20;99.90;;;;;;5052567;28;20367;-82
2021/10/13 11:00:23;;;;;;;6.20;1.70;;;12.20;99.90;;;;;;5049172;28;20037;-82
2021/10/13 11:02:49;;;;;;;9.77;2.30;;;12.20;99.90;;;;;;5052674;28;20049;-82
2021/10/13 11:05:15;;;;;;;8.67;2.07;;;12.20;99.90;;;;;;5052484;28;20022;-82
2021/10/13 11:07:42;;;;;;;8.73;2.20;;;12.20;99.90;;;;;;5053032;28;20099;-82
2021/10/13 11:10:10;;;;;;;8.63;1.93;;;12.10;99.90;;;;;;5051103;28;20025;-82
2021/10/13 11:12:59;;;;;;;6.18;1.90;;;12.20;99.90;;;;;;5051772;28;20029;-82
2021/10/13 11:15:28;;;;;;;8.52;2.53;;;12.10;99.90;;;;;;5052654;28;20017;-82
2021/10/13 11:17:54;;;;;;;9.23;2.17;;;12.10;99.90;;;;;;5051188;28;20029;-83
2021/10/13 11:20:25;;;;;;;11.80;2.87;;;12.20;99.90;;;;;;5052139;28;20067;-83
2021/10/13 11:23:03;;;;;;;7.60;2.40;;;12.20;99.90;;;;;;5051461;28;20105;-82
2021/10/13 11:25:30;;;;;;;7.70;2.43;;;12.20;99.90;;;;;;5052455;28;20021;-82
2021/10/13 11:28:09;;;;;;;8.27;2.37;;;12.10;99.90;;;;;;5052541;28;20033;-82
2021/10/13 11:30:38;;;;;;;11.85;2.72;;;12.20;99.90;;;;;;5052572;28;20488;-82
2021/10/13 11:33:09;;;;;;;7.88;2.47;;;12.20;99.90;;;;;;5052187;28;20047;-82
2021/10/13 11:35:36;;;;;;;11.20;2.43;;;12.10;99.90;;;;;;5054833;28;20065;-83
2021/10/13 11:38:02;;;;;;;9.07;2.60;;;12.20;99.90;;;;;;5055143;28;20074;-83
2021/10/13 11:40:29;;;;;;;6.87;2.67;;;12.10;99.90;;;;;;5053974;28;20048;-83
2021/10/13 11:42:57;;;;;;;7.80;2.30;;;12.10;99.90;;;;;;5053701;28;20362;-83
2021/10/13 11:45:24;;;;;;;10.10;2.00;;;12.10;99.90;;;;;;5054000;28;20446;-83
2021/10/13 11:47:50;;;;;;;7.03;1.90;;;12.20;99.90;;;;;;5055006;28;20044;-82
2021/10/13 11:50:21;;;;;;;6.33;1.80;;;12.20;99.90;;;;;;5054110;28;20473;-84
2021/10/13 11:52:55;;;;;;;8.07;1.70;;;12.30;99.90;;;;;;5054765;28;20033;-83
2021/10/13 11:55:29;;;;;;;7.23;1.90;;;12.20;99.90;;;;;;5053721;28;20090;-83
2021/10/13 11:57:58;;;;;;;6.03;1.97;;;12.30;99.90;;;;;;5055035;28;20528;-83
2021/10/13 12:00:25;;;;;;;8.43;2.13;;;12.30;99.90;;;;;;5054883;28;20025;-83
2021/10/13 12:03:09;;;;;;;8.23;2.38;;;12.40;99.90;;;;;;5054276;28;20025;-83
2021/10/13 12:05:44;;;;;;;5.82;2.10;;;12.40;99.90;;;;;;5076887;23;20016;-83
2021/10/13 12:08:18;;;;;;;7.37;2.50;;;12.50;99.90;;;;;;5057776;28;20032;-82
2021/10/13 12:10:49;;;;;;;9.13;2.30;;;12.60;99.90;;;;;;5057352;28;20025;-82
2021/10/13 12:13:17;;;;;;;12.07;2.53;;;12.60;99.90;;;;;;5060853;28;20025;-82
2021/10/13 12:15:48;;;;;;;9.35;2.13;;;12.70;99.90;;;;;;5059591;28;20024;-81
2021/10/13 12:18:19;;;;;;;10.13;2.00;;;12.90;99.90;;;;;;5059429;28;20036;-82
2021/10/13 12:20:50;;;;;;;10.65;2.78;;;12.90;99.90;;;;;;5057548;28;20031;-83
2021/10/13 12:23:22;;;;;;;5.97;1.88;;;12.90;99.90;;;;;;5059034;28;20021;-82
2021/10/13 12:25:49;;;;;;;9.30;2.00;;;12.90;99.80;;;;;;5058589;28;20029;-82
2021/10/13 12:28:16;;;;;;;7.03;1.55;;;12.90;99.90;;;;;;5059688;28;20079;-82
2021/10/13 12:30:42;;;;;;;7.40;1.50;;;13.00;99.70;;;;;;5058846;28;20049;-82
2021/10/13 12:33:12;;;;;;;8.10;1.50;;;13.00;99.90;;;;;;5057974;28;20412;-81
2021/10/13 12:35:38;;;;;;;6.82;1.40;;;13.00;99.40;;;;;;5059520;28;20031;-82
2021/10/13 12:38:12;;;;;;;7.45;1.33;;;13.00;99.20;;;;;;5058876;28;20035;-82
2021/10/13 12:40:39;;;;;;;4.80;1.10;;;13.00;99.70;;;;;;5057674;28;20017;-82
2021/10/13 12:43:23;;;;;;;4.55;0.93;;;12.90;99.70;;;;;;5059220;28;20370;-82
2021/10/13 12:45:49;;;;;;;7.88;1.63;;;12.90;99.50;;;;;;5058170;28;20620;-82
2021/10/13 12:48:21;;;;;;;5.22;1.30;;;12.80;99.80;;;;;;5059316;28;20021;-82
2021/10/13 12:51:06;;;;;;;5.53;0.98;;;12.90;99.60;;;;;;5058879;28;20536;-82
2021/10/13 12:53:33;;;;;;;4.80;1.33;;;12.90;99.90;;;;;;5059339;28;20029;-82
2021/10/13 12:55:59;;;;;;;10.20;1.40;;;12.80;99.90;;;;;;5059597;28;20025;-82
2021/10/13 12:58:26;;;;;;;6.07;1.40;;;12.90;99.90;;;;;;5058657;28;20021;-83